sensor_id;sensor_type;location;lat;lon;timestamp;pressure;altitude;pressure_sealevel;temperature;humidity
51460;BME280;37534;39.772;2.718;2023-08-06T00:01:53;101280.13;;;20.08;80.73
51460;BME280;37534;39.772;2.718;2023-08-06T00:04:19;101278.53;;;20.06;81.86
51460;BME280;37534;39.772;2.718;2023-08-06T00:06:44;101285.44;;;20.07;81.19
51460;BME280;37534;39.772;2.718;2023-08-06T00:09:10;101286.56;;;20.03;82.58
51460;BME280;37534;39.772;2.718;2023-08-06T00:11:36;101291.03;;;20.01;84.52
51460;BME280;37534;39.772;2.718;2023-08-06T00:14:01;101282.44;;;19.99;88.28
51460;BME280;37534;39.772;2.718;2023-08-06T00:16:27;101290.69;;;20.07;90.22
51460;BME280;37534;39.772;2.718;2023-08-06T00:18:52;101295.00;;;20.08;89.84
51460;BME280;37534;39.772;2.718;2023-08-06T00:21:18;101292.19;;;20.11;88.43
51460;BME280;37534;39.772;2.718;2023-08-06T00:23:43;101284.59;;;20.06;85.95
51460;BME280;37534;39.772;2.718;2023-08-06T00:26:09;101289.94;;;20.05;82.92
51460;BME280;37534;39.772;2.718;2023-08-06T00:28:35;101295.75;;;20.10;82.53
51460;BME280;37534;39.772;2.718;2023-08-06T00:31:01;101282.50;;;20.13;84.52
51460;BME280;37534;39.772;2.718;2023-08-06T00:33:26;101298.97;;;20.15;87.54
51460;BME280;37534;39.772;2.718;2023-08-06T00:35:52;101303.53;;;20.11;87.07
51460;BME280;37534;39.772;2.718;2023-08-06T00:38:17;101302.53;;;20.28;81.19
51460;BME280;37534;39.772;2.718;2023-08-06T00:40:43;101299.34;;;20.23;79.47
51460;BME280;37534;39.772;2.718;2023-08-06T00:43:09;101298.09;;;20.14;79.93
51460;BME280;37534;39.772;2.718;2023-08-06T00:45:36;101287.53;;;20.16;77.28
51460;BME280;37534;39.772;2.718;2023-08-06T00:48:03;101293.88;;;20.12;78.55
51460;BME280;37534;39.772;2.718;2023-08-06T00:50:30;101280.91;;;19.94;82.59
51460;BME280;37534;39.772;2.718;2023-08-06T00:52:56;101285.75;;;19.86;84.78
51460;BME280;37534;39.772;2.718;2023-08-06T00:55:22;101288.34;;;19.86;85.36
51460;BME280;37534;39.772;2.718;2023-08-06T00:57:48;101285.41;;;19.77;86.07
51460;BME280;37534;39.772;2.718;2023-08-06T01:00:14;101286.41;;;19.74;85.86
51460;BME280;37534;39.772;2.718;2023-08-06T01:02:39;101287.47;;;19.70;86.39
51460;BME280;37534;39.772;2.718;2023-08-06T01:05:05;101299.25;;;19.79;87.02
51460;BME280;37534;39.772;2.718;2023-08-06T01:07:56;101295.03;;;19.76;88.14
51460;BME280;37534;39.772;2.718;2023-08-06T01:10:40;101300.09;;;19.79;88.94
51460;BME280;37534;39.772;2.718;2023-08-06T01:13:23;101289.78;;;19.76;90.33
51460;BME280;37534;39.772;2.718;2023-08-06T01:15:54;101281.56;;;19.66;91.89
51460;BME280;37534;39.772;2.718;2023-08-06T01:18:22;101289.31;;;19.68;91.94
51460;BME280;37534;39.772;2.718;2023-08-06T01:20:48;101290.53;;;19.78;88.67
51460;BME280;37534;39.772;2.718;2023-08-06T01:23:15;101284.28;;;19.81;88.49
51460;BME280;37534;39.772;2.718;2023-08-06T01:25:57;101280.41;;;19.56;89.88
51460;BME280;37534;39.772;2.718;2023-08-06T01:28:40;101280.94;;;19.45;91.60
51460;BME280;37534;39.772;2.718;2023-08-06T01:31:09;101292.53;;;19.41;90.61
51460;BME280;37534;39.772;2.718;2023-08-06T01:33:38;101288.50;;;19.67;87.57
51460;BME280;37534;39.772;2.718;2023-08-06T01:36:09;101284.84;;;19.70;87.04
51460;BME280;37534;39.772;2.718;2023-08-06T01:38:35;101287.97;;;19.61;88.18
51460;BME280;37534;39.772;2.718;2023-08-06T01:41:00;101272.63;;;19.38;90.32
51460;BME280;37534;39.772;2.718;2023-08-06T01:43:26;101287.63;;;19.35;91.93
51460;BME280;37534;39.772;2.718;2023-08-06T01:45:53;101288.22;;;19.40;89.00
51460;BME280;37534;39.772;2.718;2023-08-06T01:48:18;101286.44;;;19.25;88.53
51460;BME280;37534;39.772;2.718;2023-08-06T01:50:44;101285.94;;;19.34;86.23
51460;BME280;37534;39.772;2.718;2023-08-06T01:53:10;101277.94;;;19.53;82.42
51460;BME280;37534;39.772;2.718;2023-08-06T01:55:36;101278.34;;;19.45;81.76
51460;BME280;37534;39.772;2.718;2023-08-06T01:58:01;101297.75;;;19.41;88.11
51460;BME280;37534;39.772;2.718;2023-08-06T02:00:27;101294.53;;;19.36;90.33
51460;BME280;37534;39.772;2.718;2023-08-06T02:02:54;101294.72;;;19.33;90.49
51460;BME280;37534;39.772;2.718;2023-08-06T02:05:19;101276.88;;;19.24;92.30
51460;BME280;37534;39.772;2.718;2023-08-06T02:07:45;101291.66;;;19.25;93.16
51460;BME280;37534;39.772;2.718;2023-08-06T02:10:10;101277.91;;;19.21;92.06
51460;BME280;37534;39.772;2.718;2023-08-06T02:12:36;101284.91;;;19.21;nan
51460;BME280;37534;39.772;2.718;2023-08-06T02:15:02;101280.38;;;19.24;90.03
51460;BME280;37534;39.772;2.718;2023-08-06T02:17:28;101273.09;;;19.45;91.27
51460;BME280;37534;39.772;2.718;2023-08-06T02:19:53;101286.19;;;19.61;87.49
51460;BME280;37534;39.772;2.718;2023-08-06T02:22:19;101271.75;;;19.54;87.13
51460;BME280;37534;39.772;2.718;2023-08-06T02:24:46;101279.88;;;19.33;89.23
51460;BME280;37534;39.772;2.718;2023-08-06T02:27:11;101271.38;;;19.12;90.28
51460;BME280;37534;39.772;2.718;2023-08-06T02:29:37;101271.53;;;19.09;90.19
51460;BME280;37534;39.772;2.718;2023-08-06T02:32:06;101258.81;;;19.03;92.21
51460;BME280;37534;39.772;2.718;2023-08-06T02:34:32;101276.47;;;19.15;90.92
51460;BME280;37534;39.772;2.718;2023-08-06T02:36:57;101274.59;;;19.17;92.67
51460;BME280;37534;39.772;2.718;2023-08-06T02:39:23;101277.38;;;19.14;92.16
51460;BME280;37534;39.772;2.718;2023-08-06T02:41:48;101281.50;;;19.18;93.36
51460;BME280;37534;39.772;2.718;2023-08-06T02:44:14;101269.53;;;19.14;93.16
51460;BME280;37534;39.772;2.718;2023-08-06T02:46:40;101277.06;;;19.21;93.31
51460;BME280;37534;39.772;2.718;2023-08-06T02:49:06;101272.66;;;19.21;95.42
51460;BME280;37534;39.772;2.718;2023-08-06T02:51:31;101267.50;;;19.19;96.58
51460;BME280;37534;39.772;2.718;2023-08-06T02:53:57;101247.06;;;18.94;97.74
51460;BME280;37534;39.772;2.718;2023-08-06T02:56:23;101263.28;;;19.01;98.15
51460;BME280;37534;39.772;2.718;2023-08-06T02:58:49;101258.50;;;18.92;98.36
51460;BME280;37534;39.772;2.718;2023-08-06T03:01:14;101254.44;;;18.86;97.31
51460;BME280;37534;39.772;2.718;2023-08-06T03:03:40;101260.59;;;19.18;96.49
51460;BME280;37534;39.772;2.718;2023-08-06T03:06:05;101253.84;;;19.30;95.59
51460;BME280;37534;39.772;2.718;2023-08-06T03:08:31;101260.28;;;19.25;94.24
51460;BME280;37534;39.772;2.718;2023-08-06T03:10:57;101257.56;;;19.10;98.03
51460;BME280;37534;39.772;2.718;2023-08-06T03:13:22;101247.81;;;18.96;99.27
51460;BME280;37534;39.772;2.718;2023-08-06T03:15:52;101251.25;;;18.97;99.24
51460;BME280;37534;39.772;2.718;2023-08-06T03:18:19;101231.28;;;18.96;98.61
51460;BME280;37534;39.772;2.718;2023-08-06T03:20:45;101254.47;;;19.02;98.69
51460;BME280;37534;39.772;2.718;2023-08-06T03:23:10;101244.03;;;19.02;99.38
51460;BME280;37534;39.772;2.718;2023-08-06T03:25:36;101246.06;;;19.13;98.61
51460;BME280;37534;39.772;2.718;2023-08-06T03:28:04;101240.16;;;19.09;99.37
51460;BME280;37534;39.772;2.718;2023-08-06T03:30:29;101250.19;;;19.01;99.88
51460;BME280;37534;39.772;2.718;2023-08-06T03:32:55;101252.03;;;18.99;100.00
51460;BME280;37534;39.772;2.718;2023-08-06T03:35:22;101239.13;;;18.96;98.27
51460;BME280;37534;39.772;2.718;2023-08-06T03:37:47;101249.03;;;19.07;96.54
51460;BME280;37534;39.772;2.718;2023-08-06T03:40:15;101244.97;;;19.01;98.51
51460;BME280;37534;39.772;2.718;2023-08-06T03:42:41;101239.25;;;19.10;99.30
51460;BME280;37534;39.772;2.718;2023-08-06T03:45:07;101255.00;;;19.09;100.00
51460;BME280;37534;39.772;2.718;2023-08-06T03:47:32;101252.06;;;19.15;100.00
51460;BME280;37534;39.772;2.718;2023-08-06T03:49:58;101238.50;;;19.24;95.28
51460;BME280;37534;39.772;2.718;2023-08-06T03:52:24;101241.34;;;19.19;96.66
51460;BME280;37534;39.772;2.718;2023-08-06T03:54:49;101231.91;;;19.17;98.04
51460;BME280;37534;39.772;2.718;2023-08-06T03:57:15;101236.72;;;19.25;98.22
51460;BME280;37534;39.772;2.718;2023-08-06T03:59:41;101240.44;;;19.21;99.74
51460;BME280;37534;39.772;2.718;2023-08-06T04:02:06;101231.06;;;19.16;99.94
51460;BME280;37534;39.772;2.718;2023-08-06T04:04:32;101227.94;;;19.26;99.17
51460;BME280;37534;39.772;2.718;2023-08-06T04:06:58;101233.34;;;19.23;100.00
51460;BME280;37534;39.772;2.718;2023-08-06T04:09:23;101238.75;;;19.19;100.00
51460;BME280;37534;39.772;2.718;2023-08-06T04:11:49;101238.00;;;19.17;100.00
51460;BME280;37534;39.772;2.718;2023-08-06T04:14:14;101244.41;;;19.28;99.21
51460;BME280;37534;39.772;2.718;2023-08-06T04:16:40;101230.53;;;19.26;99.47
51460;BME280;37534;39.772;2.718;2023-08-06T04:19:05;101240.19;;;19.41;98.60
51460;BME280;37534;39.772;2.718;2023-08-06T04:21:31;101249.31;;;19.50;94.10
51460;BME280;37534;39.772;2.718;2023-08-06T04:23:56;101259.78;;;19.50;96.92
51460;BME280;37534;39.772;2.718;2023-08-06T04:26:22;101254.72;;;19.63;93.69
51460;BME280;37534;39.772;2.718;2023-08-06T04:28:48;101245.13;;;19.79;91.95
51460;BME280;37534;39.772;2.718;2023-08-06T04:31:14;101257.84;;;19.69;93.32
51460;BME280;37534;39.772;2.718;2023-08-06T04:33:40;101259.38;;;19.73;93.63
51460;BME280;37534;39.772;2.718;2023-08-06T04:36:06;101263.84;;;19.87;94.81
51460;BME280;37534;39.772;2.718;2023-08-06T04:38:32;101251.13;;;20.11;97.48
51460;BME280;37534;39.772;2.718;2023-08-06T04:40:57;101269.09;;;20.18;97.31
51460;BME280;37534;39.772;2.718;2023-08-06T04:43:23;101265.28;;;20.23;96.74
51460;BME280;37534;39.772;2.718;2023-08-06T04:45:50;101256.75;;;20.50;93.82
51460;BME280;37534;39.772;2.718;2023-08-06T04:48:16;101246.75;;;20.57;94.79
51460;BME280;37534;39.772;2.718;2023-08-06T04:50:49;101268.94;;;20.51;96.09
51460;BME280;37534;39.772;2.718;2023-08-06T04:53:15;101269.31;;;20.45;96.83
51460;BME280;37534;39.772;2.718;2023-08-06T04:55:41;101273.00;;;20.41;98.11
51460;BME280;37534;39.772;2.718;2023-08-06T04:58:08;101262.25;;;20.31;98.82
51460;BME280;37534;39.772;2.718;2023-08-06T05:00:37;101264.22;;;20.42;98.55
51460;BME280;37534;39.772;2.718;2023-08-06T05:03:04;101261.94;;;20.36;99.22
51460;BME280;37534;39.772;2.718;2023-08-06T05:05:30;101252.59;;;20.31;99.83
51460;BME280;37534;39.772;2.718;2023-08-06T05:07:57;101245.13;;;20.40;100.00
51460;BME280;37534;39.772;2.718;2023-08-06T05:10:25;101262.81;;;20.66;98.54
51460;BME280;37534;39.772;2.718;2023-08-06T05:12:51;101262.47;;;20.57;99.61
51460;BME280;37534;39.772;2.718;2023-08-06T05:15:16;101267.81;;;20.55;98.91
51460;BME280;37534;39.772;2.718;2023-08-06T05:17:42;101256.53;;;20.69;99.09
51460;BME280;37534;39.772;2.718;2023-08-06T05:20:08;101268.22;;;20.63;100.00
51460;BME280;37534;39.772;2.718;2023-08-06T05:22:33;101274.47;;;20.61;100.00
51460;BME280;37534;39.772;2.718;2023-08-06T05:24:59;101277.09;;;20.61;99.97
51460;BME280;37534;39.772;2.718;2023-08-06T05:27:25;101276.50;;;20.72;100.00
51460;BME280;37534;39.772;2.718;2023-08-06T05:29:55;101258.25;;;20.84;100.00
51460;BME280;37534;39.772;2.718;2023-08-06T05:32:21;101263.41;;;20.86;100.00
51460;BME280;37534;39.772;2.718;2023-08-06T05:34:47;101254.56;;;20.87;100.00
51460;BME280;37534;39.772;2.718;2023-08-06T05:37:13;101258.31;;;21.12;100.00
51460;BME280;37534;39.772;2.718;2023-08-06T05:39:38;101269.28;;;21.18;100.00
51460;BME280;37534;39.772;2.718;2023-08-06T05:42:04;101266.34;;;21.23;100.00
51460;BME280;37534;39.772;2.718;2023-08-06T05:44:30;101274.44;;;21.34;100.00
51460;BME280;37534;39.772;2.718;2023-08-06T05:46:55;101269.28;;;21.47;100.00
51460;BME280;37534;39.772;2.718;2023-08-06T05:49:21;101273.84;;;21.43;100.00
51460;BME280;37534;39.772;2.718;2023-08-06T05:51:47;101276.47;;;21.58;100.00
51460;BME280;37534;39.772;2.718;2023-08-06T05:54:13;101294.56;;;21.62;100.00
51460;BME280;37534;39.772;2.718;2023-08-06T05:56:39;101302.13;;;21.67;100.00
51460;BME280;37534;39.772;2.718;2023-08-06T05:59:04;101308.88;;;21.86;100.00
51460;BME280;37534;39.772;2.718;2023-08-06T06:01:30;101305.50;;;21.83;100.00
51460;BME280;37534;39.772;2.718;2023-08-06T06:03:56;101317.88;;;22.09;100.00
51460;BME280;37534;39.772;2.718;2023-08-06T06:06:21;101319.81;;;22.19;100.00
51460;BME280;37534;39.772;2.718;2023-08-06T06:08:47;101311.59;;;22.24;100.00
51460;BME280;37534;39.772;2.718;2023-08-06T06:11:12;101315.09;;;22.25;100.00
51460;BME280;37534;39.772;2.718;2023-08-06T06:13:38;101321.13;;;22.27;100.00
51460;BME280;37534;39.772;2.718;2023-08-06T06:16:04;101313.59;;;22.20;100.00
51460;BME280;37534;39.772;2.718;2023-08-06T06:18:30;101318.97;;;22.19;100.00
51460;BME280;37534;39.772;2.718;2023-08-06T06:20:56;101317.09;;;22.21;100.00
51460;BME280;37534;39.772;2.718;2023-08-06T06:23:21;101325.72;;;22.23;100.00
51460;BME280;37534;39.772;2.718;2023-08-06T06:25:49;101326.72;;;22.20;100.00
51460;BME280;37534;39.772;2.718;2023-08-06T06:28:17;101325.25;;;22.16;100.00
51460;BME280;37534;39.772;2.718;2023-08-06T06:30:43;101332.22;;;22.17;100.00
51460;BME280;37534;39.772;2.718;2023-08-06T06:33:08;101336.72;;;22.30;100.00
51460;BME280;37534;39.772;2.718;2023-08-06T06:35:34;101338.31;;;22.45;100.00
51460;BME280;37534;39.772;2.718;2023-08-06T06:37:59;101340.66;;;22.63;100.00
51460;BME280;37534;39.772;2.718;2023-08-06T06:40:25;101338.03;;;22.75;100.00
51460;BME280;37534;39.772;2.718;2023-08-06T06:42:51;101341.34;;;22.92;100.00
51460;BME280;37534;39.772;2.718;2023-08-06T06:45:17;101342.91;;;23.20;100.00
51460;BME280;37534;39.772;2.718;2023-08-06T06:47:42;101338.16;;;23.51;100.00
51460;BME280;37534;39.772;2.718;2023-08-06T06:50:08;101336.41;;;23.76;100.00
51460;BME280;37534;39.772;2.718;2023-08-06T06:52:34;101330.63;;;24.07;100.00
51460;BME280;37534;39.772;2.718;2023-08-06T06:55:00;101325.53;;;24.28;100.00
51460;BME280;37534;39.772;2.718;2023-08-06T06:57:26;101325.00;;;24.47;100.00
51460;BME280;37534;39.772;2.718;2023-08-06T06:59:51;101331.81;;;24.63;100.00
51460;BME280;37534;39.772;2.718;2023-08-06T07:02:17;101326.53;;;24.74;100.00
51460;BME280;37534;39.772;2.718;2023-08-06T07:04:42;101348.31;;;25.00;100.00
51460;BME280;37534;39.772;2.718;2023-08-06T07:07:08;101343.63;;;25.04;100.00
51460;BME280;37534;39.772;2.718;2023-08-06T07:09:33;101351.31;;;25.07;100.00
51460;BME280;37534;39.772;2.718;2023-08-06T07:11:59;101367.31;;;25.28;100.00
51460;BME280;37534;39.772;2.718;2023-08-06T07:14:28;101353.25;;;25.28;100.00
51460;BME280;37534;39.772;2.718;2023-08-06T07:16:54;101366.47;;;25.50;100.00
51460;BME280;37534;39.772;2.718;2023-08-06T07:19:20;101369.94;;;25.62;100.00
51460;BME280;37534;39.772;2.718;2023-08-06T07:21:45;101374.13;;;25.76;96.42
51460;BME280;37534;39.772;2.718;2023-08-06T07:24:11;101360.19;;;25.85;96.05
51460;BME280;37534;39.772;2.718;2023-08-06T07:26:37;101360.66;;;26.02;91.40
51460;BME280;37534;39.772;2.718;2023-08-06T07:29:03;101363.53;;;26.10;92.41
51460;BME280;37534;39.772;2.718;2023-08-06T07:31:28;101351.06;;;26.22;91.48
51460;BME280;37534;39.772;2.718;2023-08-06T07:33:54;101354.13;;;26.38;87.50
51460;BME280;37534;39.772;2.718;2023-08-06T07:36:20;101354.66;;;26.53;87.15
51460;BME280;37534;39.772;2.718;2023-08-06T07:38:45;101358.25;;;26.63;85.37
51460;BME280;37534;39.772;2.718;2023-08-06T07:41:11;101352.56;;;26.68;84.67
51460;BME280;37534;39.772;2.718;2023-08-06T07:43:37;101346.31;;;26.69;84.27
51460;BME280;37534;39.772;2.718;2023-08-06T07:46:03;101378.56;;;26.84;83.66
51460;BME280;37534;39.772;2.718;2023-08-06T07:48:28;101386.72;;;26.92;83.53
51460;BME280;37534;39.772;2.718;2023-08-06T07:50:55;101382.03;;;27.05;81.68
51460;BME280;37534;39.772;2.718;2023-08-06T07:53:21;101372.91;;;27.19;80.96
51460;BME280;37534;39.772;2.718;2023-08-06T07:55:51;101380.84;;;27.40;77.17
51460;BME280;37534;39.772;2.718;2023-08-06T07:58:17;101376.63;;;27.68;78.09
51460;BME280;37534;39.772;2.718;2023-08-06T08:00:42;101375.97;;;27.86;75.50
51460;BME280;37534;39.772;2.718;2023-08-06T08:03:14;101383.00;;;27.97;75.52
51460;BME280;37534;39.772;2.718;2023-08-06T08:05:41;101374.34;;;27.95;75.05
51460;BME280;37534;39.772;2.718;2023-08-06T08:08:07;101387.47;;;28.06;74.17
51460;BME280;37534;39.772;2.718;2023-08-06T08:10:33;101387.75;;;28.13;73.86
51460;BME280;37534;39.772;2.718;2023-08-06T08:13:00;101379.94;;;28.11;73.49
51460;BME280;37534;39.772;2.718;2023-08-06T08:15:31;101389.00;;;28.18;72.83
51460;BME280;37534;39.772;2.718;2023-08-06T08:17:57;101382.72;;;28.19;71.94
51460;BME280;37534;39.772;2.718;2023-08-06T08:20:23;101387.75;;;28.22;73.26
51460;BME280;37534;39.772;2.718;2023-08-06T08:22:49;101385.66;;;28.16;71.85
51460;BME280;37534;39.772;2.718;2023-08-06T08:25:15;101387.75;;;28.13;70.50
51460;BME280;37534;39.772;2.718;2023-08-06T08:27:41;101387.63;;;28.14;70.46
51460;BME280;37534;39.772;2.718;2023-08-06T08:30:07;101391.66;;;28.18;70.15
51460;BME280;37534;39.772;2.718;2023-08-06T08:32:32;101388.19;;;28.28;70.93
51460;BME280;37534;39.772;2.718;2023-08-06T08:34:58;101379.94;;;28.31;71.65
51460;BME280;37534;39.772;2.718;2023-08-06T08:37:27;101393.06;;;28.52;69.81
51460;BME280;37534;39.772;2.718;2023-08-06T08:39:53;101385.84;;;28.54;71.30
51460;BME280;37534;39.772;2.718;2023-08-06T08:42:21;101386.66;;;28.54;71.18
51460;BME280;37534;39.772;2.718;2023-08-06T08:44:47;101387.06;;;28.59;72.82
51460;BME280;37534;39.772;2.718;2023-08-06T08:47:13;101380.50;;;28.63;71.77
51460;BME280;37534;39.772;2.718;2023-08-06T08:49:42;101387.22;;;28.68;71.07
51460;BME280;37534;39.772;2.718;2023-08-06T08:52:10;101405.50;;;28.80;70.61
51460;BME280;37534;39.772;2.718;2023-08-06T08:54:38;101409.69;;;28.83;70.61
51460;BME280;37534;39.772;2.718;2023-08-06T08:57:05;101397.41;;;28.82;70.24
51460;BME280;37534;39.772;2.718;2023-08-06T08:59:33;101386.63;;;28.84;71.43
51460;BME280;37534;39.772;2.718;2023-08-06T09:02:00;101406.97;;;29.02;73.06
51460;BME280;37534;39.772;2.718;2023-08-06T09:04:28;101393.28;;;29.07;71.67
51460;BME280;37534;39.772;2.718;2023-08-06T09:06:58;101387.00;;;28.98;69.89
51460;BME280;37534;39.772;2.718;2023-08-06T09:09:34;101389.06;;;29.05;70.29
51460;BME280;37534;39.772;2.718;2023-08-06T09:12:09;101388.22;;;29.14;68.32
51460;BME280;37534;39.772;2.718;2023-08-06T09:14:37;101384.47;;;29.07;69.01
51460;BME280;37534;39.772;2.718;2023-08-06T09:17:04;101389.63;;;29.08;70.38
51460;BME280;37534;39.772;2.718;2023-08-06T09:19:31;101377.06;;;29.00;67.97
51460;BME280;37534;39.772;2.718;2023-08-06T09:21:58;101388.25;;;29.04;68.20
51460;BME280;37534;39.772;2.718;2023-08-06T09:24:25;101396.91;;;29.16;70.31
51460;BME280;37534;39.772;2.718;2023-08-06T09:26:52;101410.41;;;29.32;71.23
51460;BME280;37534;39.772;2.718;2023-08-06T09:29:17;101393.16;;;29.46;69.66
51460;BME280;37534;39.772;2.718;2023-08-06T09:31:44;101408.19;;;29.65;68.07
51460;BME280;37534;39.772;2.718;2023-08-06T09:34:15;101404.06;;;29.81;64.32
51460;BME280;37534;39.772;2.718;2023-08-06T09:36:42;101394.81;;;29.85;66.40
51460;BME280;37534;39.772;2.718;2023-08-06T09:39:18;101395.94;;;30.00;65.90
51460;BME280;37534;39.772;2.718;2023-08-06T09:41:45;101391.50;;;30.19;67.08
51460;BME280;37534;39.772;2.718;2023-08-06T09:44:20;101385.25;;;30.28;63.76
51460;BME280;37534;39.772;2.718;2023-08-06T09:47:03;101391.41;;;30.46;63.95
51460;BME280;37534;39.772;2.718;2023-08-06T09:49:41;101386.53;;;30.60;62.04
51460;BME280;37534;39.772;2.718;2023-08-06T09:52:12;101402.50;;;30.24;61.98
51460;BME280;37534;39.772;2.718;2023-08-06T09:54:38;101395.38;;;30.42;63.47
51460;BME280;37534;39.772;2.718;2023-08-06T09:57:03;101388.88;;;30.63;61.87
51460;BME280;37534;39.772;2.718;2023-08-06T09:59:30;101389.03;;;30.87;59.69
51460;BME280;37534;39.772;2.718;2023-08-06T10:01:57;101402.84;;;31.09;57.57
51460;BME280;37534;39.772;2.718;2023-08-06T10:04:23;101388.53;;;31.10;55.79
51460;BME280;37534;39.772;2.718;2023-08-06T10:06:49;101394.66;;;31.37;56.91
51460;BME280;37534;39.772;2.718;2023-08-06T10:09:15;101388.78;;;31.59;55.75
51460;BME280;37534;39.772;2.718;2023-08-06T10:11:42;101390.16;;;31.80;54.76
51460;BME280;37534;39.772;2.718;2023-08-06T10:14:25;101388.19;;;31.90;54.66
51460;BME280;37534;39.772;2.718;2023-08-06T10:16:52;101393.94;;;32.12;52.97
51460;BME280;37534;39.772;2.718;2023-08-06T10:19:21;101380.94;;;32.17;54.60
51460;BME280;37534;39.772;2.718;2023-08-06T10:22:12;101386.75;;;32.04;55.44
51460;BME280;37534;39.772;2.718;2023-08-06T10:24:54;101390.03;;;31.98;55.06
51460;BME280;37534;39.772;2.718;2023-08-06T10:27:21;101376.69;;;31.98;56.94
51460;BME280;37534;39.772;2.718;2023-08-06T10:29:47;101369.03;;;32.03;57.31
51460;BME280;37534;39.772;2.718;2023-08-06T10:32:14;101386.25;;;32.17;55.55
51460;BME280;37534;39.772;2.718;2023-08-06T10:34:56;101384.28;;;32.35;56.83
51460;BME280;37534;39.772;2.718;2023-08-06T10:37:23;101387.78;;;32.44;56.88
51460;BME280;37534;39.772;2.718;2023-08-06T10:39:52;101368.91;;;32.46;58.01
51460;BME280;37534;39.772;2.718;2023-08-06T10:42:36;101363.91;;;32.51;57.19
51460;BME280;37534;39.772;2.718;2023-08-06T10:45:15;101369.28;;;32.59;57.82
51460;BME280;37534;39.772;2.718;2023-08-06T10:47:42;101377.28;;;32.67;57.09
51460;BME280;37534;39.772;2.718;2023-08-06T10:50:14;101378.59;;;32.71;57.79
51460;BME280;37534;39.772;2.718;2023-08-06T10:52:42;101365.91;;;32.73;57.58
51460;BME280;37534;39.772;2.718;2023-08-06T10:55:09;101368.25;;;32.76;57.60
51460;BME280;37534;39.772;2.718;2023-08-06T10:57:34;101367.25;;;32.69;56.79
51460;BME280;37534;39.772;2.718;2023-08-06T11:00:00;101365.25;;;32.63;56.58
51460;BME280;37534;39.772;2.718;2023-08-06T11:02:26;101357.56;;;32.52;57.56
51460;BME280;37534;39.772;2.718;2023-08-06T11:04:52;101362.56;;;32.71;58.66
51460;BME280;37534;39.772;2.718;2023-08-06T11:07:17;101364.06;;;32.82;57.60
51460;BME280;37534;39.772;2.718;2023-08-06T11:09:43;101372.56;;;32.77;58.10
51460;BME280;37534;39.772;2.718;2023-08-06T11:12:11;101368.09;;;32.78;57.76
51460;BME280;37534;39.772;2.718;2023-08-06T11:14:37;101370.22;;;32.83;58.33
51460;BME280;37534;39.772;2.718;2023-08-06T11:17:05;101370.56;;;32.80;57.80
51460;BME280;37534;39.772;2.718;2023-08-06T11:19:32;101353.88;;;32.77;58.38
51460;BME280;37534;39.772;2.718;2023-08-06T11:21:57;101352.81;;;32.95;57.84
51460;BME280;37534;39.772;2.718;2023-08-06T11:24:24;101375.84;;;33.04;56.99
51460;BME280;37534;39.772;2.718;2023-08-06T11:26:49;101368.78;;;33.11;56.69
51460;BME280;37534;39.772;2.718;2023-08-06T11:29:15;101372.47;;;33.19;56.80
51460;BME280;37534;39.772;2.718;2023-08-06T11:31:41;101367.75;;;33.37;56.65
51460;BME280;37534;39.772;2.718;2023-08-06T11:34:07;101364.75;;;33.32;55.67
51460;BME280;37534;39.772;2.718;2023-08-06T11:36:34;101370.75;;;33.34;55.51
51460;BME280;37534;39.772;2.718;2023-08-06T11:39:02;101364.19;;;33.45;54.96
51460;BME280;37534;39.772;2.718;2023-08-06T11:41:30;101364.97;;;33.53;54.94
51460;BME280;37534;39.772;2.718;2023-08-06T11:43:57;101360.94;;;33.66;53.82
51460;BME280;37534;39.772;2.718;2023-08-06T11:46:23;101355.31;;;33.52;54.10
51460;BME280;37534;39.772;2.718;2023-08-06T11:48:58;101357.97;;;33.52;54.18
51460;BME280;37534;39.772;2.718;2023-08-06T11:51:25;101350.53;;;33.63;54.89
51460;BME280;37534;39.772;2.718;2023-08-06T11:53:56;101335.78;;;33.75;53.11
51460;BME280;37534;39.772;2.718;2023-08-06T11:56:25;101339.47;;;33.74;52.76
51460;BME280;37534;39.772;2.718;2023-08-06T11:58:52;101328.97;;;33.64;52.11
51460;BME280;37534;39.772;2.718;2023-08-06T12:01:18;101337.50;;;33.68;53.14
51460;BME280;37534;39.772;2.718;2023-08-06T12:03:44;101352.13;;;33.80;53.28
51460;BME280;37534;39.772;2.718;2023-08-06T12:06:09;101337.66;;;33.35;54.54
51460;BME280;37534;39.772;2.718;2023-08-06T12:08:35;101339.84;;;33.63;52.79
51460;BME280;37534;39.772;2.718;2023-08-06T12:11:00;101333.50;;;33.64;52.63
51460;BME280;37534;39.772;2.718;2023-08-06T12:13:26;101329.59;;;33.75;53.37
51460;BME280;37534;39.772;2.718;2023-08-06T12:15:54;101310.03;;;33.74;52.17
51460;BME280;37534;39.772;2.718;2023-08-06T12:18:20;101335.94;;;33.97;52.75
51460;BME280;37534;39.772;2.718;2023-08-06T12:20:46;101327.63;;;33.91;52.27
51460;BME280;37534;39.772;2.718;2023-08-06T12:23:12;101323.28;;;33.90;52.15
51460;BME280;37534;39.772;2.718;2023-08-06T12:25:41;101314.78;;;33.87;52.10
51460;BME280;37534;39.772;2.718;2023-08-06T12:28:07;101337.81;;;33.96;52.43
51460;BME280;37534;39.772;2.718;2023-08-06T12:30:33;101327.22;;;34.03;51.73
51460;BME280;37534;39.772;2.718;2023-08-06T12:32:59;101318.88;;;33.98;52.20
51460;BME280;37534;39.772;2.718;2023-08-06T12:35:25;101326.31;;;34.10;51.86
51460;BME280;37534;39.772;2.718;2023-08-06T12:37:51;101322.81;;;34.10;51.46
51460;BME280;37534;39.772;2.718;2023-08-06T12:40:20;101320.44;;;34.15;51.32
51460;BME280;37534;39.772;2.718;2023-08-06T12:42:46;101322.50;;;34.05;51.67
51460;BME280;37534;39.772;2.718;2023-08-06T12:45:14;101312.03;;;33.95;51.16
51460;BME280;37534;39.772;2.718;2023-08-06T12:47:40;101310.91;;;33.89;51.34